createdAt,value
2018-05-27T00:01:42.105Z,19.22
2018-05-27T00:04:10.538Z,19.06
2018-05-27T00:06:38.968Z,19.12
2018-05-27T00:09:07.476Z,19.23
2018-05-27T00:11:35.949Z,19.04
2018-05-27T00:14:04.411Z,18.99
2018-05-27T00:16:32.877Z,18.91
2018-05-27T00:19:01.304Z,18.82
2018-05-27T00:21:29.744Z,18.55
2018-05-27T00:23:58.220Z,18.39
2018-05-27T00:26:26.648Z,18.32
2018-05-27T00:28:55.080Z,18.59
2018-05-27T00:31:23.544Z,18.85
2018-05-27T00:33:51.979Z,18.93
2018-05-27T00:36:20.429Z,18.99
2018-05-27T00:38:48.897Z,18.99
2018-05-27T00:41:17.325Z,18.75
2018-05-27T00:43:45.756Z,18.59
2018-05-27T00:46:14.230Z,18.38
2018-05-27T00:48:42.659Z,18.17
2018-05-27T00:51:11.090Z,18.03
2018-05-27T00:53:51.407Z,17.91
2018-05-27T00:56:19.841Z,17.82
2018-05-27T00:58:48.285Z,17.76
2018-05-27T01:01:16.788Z,17.99
2018-05-27T01:03:45.243Z,18.13
2018-05-27T01:06:13.664Z,18.18
2018-05-27T01:08:42.156Z,18.17
2018-05-27T01:11:10.596Z,18.24
2018-05-27T01:13:39.026Z,18.23
2018-05-27T01:16:07.496Z,18.25
2018-05-27T01:18:35.964Z,18.13
2018-05-27T01:21:04.387Z,17.98
2018-05-27T01:23:32.872Z,18.00
2018-05-27T01:26:01.297Z,18.04
2018-05-27T01:28:29.756Z,17.86
2018-05-27T01:30:58.233Z,17.87
2018-05-27T01:33:26.663Z,17.64
2018-05-27T01:35:55.106Z,17.44
2018-05-27T01:38:23.577Z,17.50
2018-05-27T01:40:52.005Z,17.38
2018-05-27T01:43:20.447Z,17.21
2018-05-27T01:45:48.937Z,17.28
2018-05-27T01:48:17.373Z,17.16
2018-05-27T01:50:45.811Z,17.04
2018-05-27T01:53:20.111Z,16.85
2018-05-27T01:55:48.530Z,16.90
2018-05-27T01:58:16.949Z,16.85
2018-05-27T02:00:45.405Z,16.90
2018-05-27T02:03:13.831Z,17.14
2018-05-27T02:05:42.253Z,17.22
2018-05-27T02:08:10.714Z,17.27
2018-05-27T02:10:39.157Z,17.25
2018-05-27T02:13:07.574Z,17.15
2018-05-27T02:15:36.058Z,16.93
2018-05-27T02:18:04.532Z,16.79
2018-05-27T02:20:32.959Z,16.55
2018-05-27T02:23:01.422Z,16.67
2018-05-27T02:25:29.863Z,16.78
2018-05-27T02:27:58.723Z,16.85
2018-05-27T02:30:27.196Z,16.60
2018-05-27T02:32:55.630Z,16.46
2018-05-27T02:35:24.068Z,16.47
2018-05-27T02:37:52.529Z,16.36
2018-05-27T02:40:20.967Z,16.32
2018-05-27T02:42:49.471Z,16.45
2018-05-27T02:45:17.949Z,16.57
2018-05-27T02:47:46.395Z,16.30
2018-05-27T02:50:14.822Z,16.48
2018-05-27T02:52:43.298Z,16.19
2018-05-27T02:55:12.446Z,15.94
2018-05-27T02:57:40.882Z,16.19
2018-05-27T03:00:09.373Z,16.28
2018-05-27T03:02:37.808Z,16.20
2018-05-27T03:05:06.250Z,16.09
2018-05-27T03:07:34.740Z,15.98
2018-05-27T03:10:03.183Z,15.90
2018-05-27T03:12:31.604Z,15.78
2018-05-27T03:15:00.070Z,15.76
2018-05-27T03:17:28.501Z,15.73
2018-05-27T03:19:56.949Z,15.97
2018-05-27T03:22:25.428Z,16.17
2018-05-27T03:24:53.873Z,16.00
2018-05-27T03:27:22.318Z,16.11
2018-05-27T03:29:50.796Z,16.07
2018-05-27T03:32:19.225Z,15.95
2018-05-27T03:34:47.639Z,15.88
2018-05-27T03:37:16.109Z,15.76
2018-05-27T03:39:44.526Z,15.82
2018-05-27T03:42:12.947Z,15.82
2018-05-27T03:44:41.414Z,15.87
2018-05-27T03:47:09.840Z,15.94
2018-05-27T03:49:38.276Z,15.90
2018-05-27T03:52:06.741Z,16.04
2018-05-27T03:54:35.187Z,16.12
2018-05-27T03:57:03.624Z,15.93
2018-05-27T03:59:33.021Z,15.85
2018-05-27T04:02:01.476Z,15.86
2018-05-27T04:04:53.814Z,15.91
2018-05-27T04:07:34.134Z,15.93
2018-05-27T04:10:02.607Z,15.95
2018-05-27T04:12:31.060Z,16.00
2018-05-27T04:14:59.494Z,16.01
2018-05-27T04:17:27.996Z,16.09
2018-05-27T04:19:56.437Z,16.21
2018-05-27T04:22:24.869Z,16.39
2018-05-27T04:24:53.329Z,16.41
2018-05-27T04:27:21.748Z,16.35
2018-05-27T04:29:50.168Z,16.46
2018-05-27T04:32:18.653Z,16.45
2018-05-27T04:34:47.098Z,16.43
2018-05-27T04:37:15.515Z,16.64
2018-05-27T04:39:43.977Z,16.70
2018-05-27T04:42:12.413Z,16.60
2018-05-27T04:44:40.849Z,16.67
2018-05-27T04:47:09.356Z,16.73
2018-05-27T04:49:37.804Z,16.85
2018-05-27T04:52:06.245Z,16.90
2018-05-27T04:54:34.729Z,17.04
2018-05-27T04:57:03.145Z,17.12
2018-05-27T04:59:31.570Z,17.11
2018-05-27T05:02:00.048Z,17.07
2018-05-27T05:04:28.480Z,17.13
2018-05-27T05:06:56.921Z,17.10
2018-05-27T05:09:25.426Z,17.17
2018-05-27T05:11:53.869Z,17.25
2018-05-27T05:14:22.305Z,17.43
2018-05-27T05:16:50.793Z,17.52
2018-05-27T05:19:19.237Z,17.59
2018-05-27T05:21:47.709Z,17.75
2018-05-27T05:24:16.193Z,17.88
2018-05-27T05:26:44.628Z,18.03
2018-05-27T05:29:13.058Z,18.14
2018-05-27T05:31:41.541Z,18.24
2018-05-27T05:34:09.965Z,18.24
2018-05-27T05:36:38.400Z,18.28
2018-05-27T05:39:06.888Z,18.29
2018-05-27T05:41:35.316Z,18.54
2018-05-27T05:44:03.787Z,18.61
2018-05-27T05:46:32.283Z,18.66
2018-05-27T05:49:00.706Z,18.59
2018-05-27T05:51:29.143Z,18.71
2018-05-27T05:53:57.636Z,18.84
2018-05-27T05:56:26.072Z,18.90
2018-05-27T05:58:54.518Z,18.98
2018-05-27T06:01:22.998Z,19.17
2018-05-27T06:03:51.446Z,19.32
2018-05-27T06:06:20.155Z,19.46
2018-05-27T06:08:48.670Z,19.62
2018-05-27T06:11:17.116Z,19.76
2018-05-27T06:13:45.564Z,19.78
2018-05-27T06:16:14.049Z,19.89
2018-05-27T06:18:42.496Z,20.00
2018-05-27T06:21:10.943Z,20.01
2018-05-27T06:23:39.430Z,20.08
2018-05-27T06:26:07.865Z,20.15
2018-05-27T06:28:36.300Z,20.21
2018-05-27T06:31:04.780Z,20.36
2018-05-27T06:33:33.220Z,20.47
2018-05-27T06:36:01.667Z,20.48
2018-05-27T06:38:30.141Z,20.54
2018-05-27T06:40:58.572Z,20.68
2018-05-27T06:43:27.032Z,20.76
2018-05-27T06:45:55.488Z,20.74
2018-05-27T06:48:23.912Z,20.73
2018-05-27T06:50:52.362Z,20.82
2018-05-27T06:53:20.844Z,20.94
2018-05-27T06:55:49.303Z,21.10
2018-05-27T06:58:17.739Z,21.20
2018-05-27T07:00:46.268Z,21.29
2018-05-27T07:03:14.739Z,21.38
2018-05-27T07:05:43.169Z,21.46
2018-05-27T07:08:11.630Z,21.59
2018-05-27T07:10:40.076Z,21.53
2018-05-27T07:13:08.526Z,21.55
2018-05-27T07:15:36.981Z,21.64
2018-05-27T07:18:05.427Z,21.69
2018-05-27T07:20:33.845Z,21.80
2018-05-27T07:23:02.318Z,21.91
2018-05-27T07:25:30.744Z,22.10
2018-05-27T07:27:59.177Z,22.18
2018-05-27T07:30:27.664Z,22.24
2018-05-27T07:32:56.106Z,22.39
2018-05-27T07:35:24.528Z,22.41
2018-05-27T07:37:53.015Z,22.47
2018-05-27T07:40:21.453Z,22.62
2018-05-27T07:42:49.883Z,22.73
2018-05-27T07:45:18.362Z,22.78
2018-05-27T07:47:46.800Z,22.82
2018-05-27T07:50:15.260Z,22.81
2018-05-27T07:52:43.748Z,22.96
2018-05-27T07:55:12.176Z,23.00
2018-05-27T07:57:40.610Z,23.18
2018-05-27T08:00:09.080Z,23.24
2018-05-27T08:02:37.508Z,23.37
2018-05-27T08:05:05.966Z,23.39
2018-05-27T08:07:34.448Z,23.32
2018-05-27T08:10:02.865Z,23.28
2018-05-27T08:12:31.303Z,23.37
2018-05-27T08:14:59.797Z,23.53
2018-05-27T08:17:28.235Z,23.58
2018-05-27T08:19:56.670Z,23.72
2018-05-27T08:22:25.176Z,23.99
2018-05-27T08:24:53.616Z,24.15
2018-05-27T08:27:22.042Z,24.13
2018-05-27T08:29:50.718Z,24.17
2018-05-27T08:32:19.150Z,24.27
2018-05-27T08:34:47.580Z,24.34
2018-05-27T08:37:16.087Z,24.48
2018-05-27T08:39:44.811Z,24.55
2018-05-27T08:42:13.235Z,24.61
2018-05-27T08:44:41.715Z,24.50
2018-05-27T08:47:10.148Z,24.37
2018-05-27T08:49:38.576Z,24.24
2018-05-27T08:52:07.116Z,24.26
2018-05-27T08:54:35.547Z,24.22
2018-05-27T08:57:03.977Z,24.42
2018-05-27T08:59:32.454Z,24.55
2018-05-27T09:02:00.884Z,24.64
2018-05-27T09:04:29.308Z,24.75
2018-05-27T09:06:57.777Z,24.74
2018-05-27T09:09:26.220Z,24.72
2018-05-27T09:11:54.652Z,24.87
2018-05-27T09:14:23.120Z,24.85
2018-05-27T09:16:51.554Z,24.84
2018-05-27T09:19:19.986Z,24.71
2018-05-27T09:21:48.493Z,24.73
2018-05-27T09:24:16.913Z,24.56
2018-05-27T09:26:45.349Z,24.51
2018-05-27T09:29:13.833Z,24.57
2018-05-27T09:31:42.273Z,24.71
2018-05-27T09:34:10.699Z,24.84
2018-05-27T09:36:39.169Z,24.88
2018-05-27T09:39:07.661Z,24.90
2018-05-27T09:41:36.060Z,25.09
2018-05-27T09:44:04.551Z,25.27
2018-05-27T09:46:32.984Z,25.46
2018-05-27T09:49:01.421Z,25.66
2018-05-27T09:51:29.937Z,25.74
2018-05-27T09:53:58.354Z,25.75
2018-05-27T09:56:26.773Z,25.60
2018-05-27T09:58:55.242Z,25.74
2018-05-27T10:01:23.677Z,25.83
2018-05-27T10:03:52.112Z,25.89
2018-05-27T10:06:20.585Z,25.86
2018-05-27T10:08:49.016Z,25.98
2018-05-27T10:11:17.451Z,25.88
2018-05-27T10:13:45.926Z,25.88
2018-05-27T10:16:14.370Z,25.90
2018-05-27T10:18:42.804Z,26.05
2018-05-27T10:21:11.270Z,26.14
2018-05-27T10:23:39.684Z,26.28
2018-05-27T10:26:08.220Z,26.50
2018-05-27T10:28:36.654Z,26.62
2018-05-27T10:31:05.076Z,26.78
2018-05-27T10:33:33.501Z,26.79
2018-05-27T10:36:01.990Z,26.78
2018-05-27T10:38:30.418Z,27.01
2018-05-27T10:40:58.840Z,27.13
2018-05-27T10:43:27.296Z,27.05
2018-05-27T10:45:55.728Z,26.97
2018-05-27T10:48:24.166Z,26.98
2018-05-27T10:50:52.639Z,27.04
2018-05-27T10:53:21.066Z,27.18
2018-05-27T10:55:49.493Z,27.26
2018-05-27T10:58:17.970Z,27.39
2018-05-27T11:00:46.395Z,27.46
2018-05-27T11:03:14.821Z,27.44
2018-05-27T11:05:43.359Z,27.39
2018-05-27T11:08:11.763Z,27.56
2018-05-27T11:10:40.202Z,27.65
2018-05-27T11:13:08.681Z,27.75
2018-05-27T11:15:37.113Z,27.88
2018-05-27T11:18:05.540Z,27.75
2018-05-27T11:20:34.024Z,27.73
2018-05-27T11:23:02.452Z,27.79
2018-05-27T11:25:30.885Z,27.79
2018-05-27T11:27:59.370Z,27.81
2018-05-27T11:30:27.800Z,28.05
2018-05-27T11:32:56.230Z,28.13
2018-05-27T11:35:24.717Z,28.02
2018-05-27T11:37:53.160Z,28.10
2018-05-27T11:40:21.589Z,28.06
2018-05-27T11:42:50.063Z,28.11
2018-05-27T11:45:18.489Z,28.29
2018-05-27T11:47:46.926Z,28.56
2018-05-27T11:50:15.410Z,28.66
2018-05-27T11:52:43.842Z,28.69
2018-05-27T11:55:12.266Z,28.70
2018-05-27T11:57:40.750Z,28.66
2018-05-27T12:00:09.185Z,28.70
2018-05-27T12:02:37.616Z,28.70
2018-05-27T12:05:06.088Z,28.78
2018-05-27T12:07:34.544Z,28.85
2018-05-27T12:10:02.988Z,28.94
2018-05-27T12:12:31.475Z,29.10
2018-05-27T12:14:59.912Z,28.96
2018-05-27T12:17:28.336Z,28.97
2018-05-27T12:19:56.814Z,29.00
2018-05-27T12:22:25.249Z,28.89
2018-05-27T12:24:53.700Z,28.94
2018-05-27T12:27:22.187Z,28.95
2018-05-27T12:29:50.676Z,28.93
2018-05-27T12:32:19.096Z,28.86
2018-05-27T12:34:47.580Z,28.87
2018-05-27T12:37:16.001Z,29.10
2018-05-27T12:39:44.432Z,29.09
2018-05-27T12:42:12.928Z,28.95
2018-05-27T12:44:41.370Z,29.02
2018-05-27T12:47:09.788Z,29.10
2018-05-27T12:49:38.248Z,29.17
2018-05-27T12:52:06.676Z,29.46
2018-05-27T12:54:35.097Z,29.42
2018-05-27T12:57:03.616Z,29.35
2018-05-27T12:59:32.045Z,29.49
2018-05-27T13:02:00.478Z,29.46
2018-05-27T13:04:28.940Z,29.34
2018-05-27T13:06:57.377Z,29.36
2018-05-27T13:09:25.819Z,29.41
2018-05-27T13:11:54.304Z,29.41
2018-05-27T13:14:22.735Z,29.50
2018-05-27T13:16:51.269Z,29.55
2018-05-27T13:19:19.683Z,29.41
2018-05-27T13:21:48.112Z,29.36
2018-05-27T13:24:16.530Z,29.36
2018-05-27T13:26:45.012Z,29.36
2018-05-27T13:29:13.443Z,29.40
2018-05-27T13:31:41.872Z,29.35
2018-05-27T13:34:10.345Z,29.40
2018-05-27T13:36:38.771Z,29.35
2018-05-27T13:39:07.219Z,29.34
2018-05-27T13:41:35.689Z,29.52
2018-05-27T13:44:04.117Z,29.64
2018-05-27T13:46:32.565Z,29.66
2018-05-27T13:49:01.047Z,29.75
2018-05-27T13:51:29.489Z,29.79
2018-05-27T13:53:57.928Z,29.88
2018-05-27T13:56:26.423Z,29.90
2018-05-27T13:58:54.865Z,30.10
2018-05-27T14:01:23.293Z,30.18
2018-05-27T14:03:51.789Z,29.91
2018-05-27T14:06:20.220Z,29.76
2018-05-27T14:08:48.645Z,29.67
2018-05-27T14:11:17.116Z,29.91
2018-05-27T14:13:45.545Z,29.82
2018-05-27T14:16:13.987Z,29.69
2018-05-27T14:18:42.465Z,29.66
2018-05-27T14:21:10.906Z,29.85
2018-05-27T14:23:39.345Z,29.79
2018-05-27T14:26:07.841Z,29.79
2018-05-27T14:28:36.268Z,29.81
2018-05-27T14:31:04.692Z,29.69
2018-05-27T14:33:33.155Z,29.71
2018-05-27T14:36:01.576Z,29.60
2018-05-27T14:38:30.006Z,29.43
2018-05-27T14:40:58.465Z,29.11
2018-05-27T14:43:26.896Z,29.04
2018-05-27T14:45:55.356Z,28.91
2018-05-27T14:48:23.843Z,28.74
2018-05-27T14:50:52.280Z,28.63
2018-05-27T14:53:20.715Z,28.60
2018-05-27T14:55:49.192Z,28.33
2018-05-27T14:58:17.640Z,28.12
2018-05-27T15:00:46.080Z,27.91
2018-05-27T15:03:14.568Z,27.86
2018-05-27T15:05:43.012Z,27.87
2018-05-27T15:08:11.785Z,27.85
2018-05-27T15:10:40.281Z,27.75
2018-05-27T15:13:08.729Z,27.70
2018-05-27T15:15:37.168Z,27.56
2018-05-27T15:18:05.656Z,27.53
2018-05-27T15:20:34.090Z,27.47
2018-05-27T15:23:02.540Z,27.48
2018-05-27T15:25:31.010Z,27.42
2018-05-27T15:27:59.437Z,27.36
2018-05-27T15:30:27.876Z,27.34
2018-05-27T15:32:56.362Z,27.23
2018-05-27T15:35:24.792Z,27.23
2018-05-27T15:37:53.266Z,27.24
2018-05-27T15:40:21.744Z,27.20
2018-05-27T15:42:50.174Z,27.22
2018-05-27T15:45:18.622Z,27.27
2018-05-27T15:47:47.115Z,27.33
2018-05-27T15:50:15.559Z,27.32
2018-05-27T15:52:43.996Z,27.30
2018-05-27T15:55:12.468Z,27.30
2018-05-27T15:57:40.902Z,27.29
2018-05-27T16:00:09.330Z,27.35
2018-05-27T16:02:37.795Z,27.33
2018-05-27T16:05:06.241Z,27.24
2018-05-27T16:07:34.666Z,27.19
2018-05-27T16:10:03.179Z,27.17
2018-05-27T16:12:31.612Z,27.15
2018-05-27T16:15:00.056Z,27.21
2018-05-27T16:17:28.530Z,27.15
2018-05-27T16:19:56.970Z,27.11
2018-05-27T16:22:25.418Z,27.07
2018-05-27T16:24:53.899Z,27.08
2018-05-27T16:27:22.359Z,27.04
2018-05-27T16:29:50.808Z,27.05
2018-05-27T16:32:19.286Z,26.99
2018-05-27T16:34:47.719Z,26.95
2018-05-27T16:37:16.136Z,26.93
2018-05-27T16:39:44.612Z,26.88
2018-05-27T16:42:13.033Z,26.80
2018-05-27T16:44:41.473Z,26.76
2018-05-27T16:47:10.017Z,26.69
2018-05-27T16:49:38.453Z,26.58
2018-05-27T16:52:06.890Z,26.52
2018-05-27T16:54:35.374Z,26.57
2018-05-27T16:57:03.835Z,26.52
2018-05-27T16:59:32.280Z,26.54
2018-05-27T17:02:00.752Z,26.53
2018-05-27T17:04:29.198Z,26.49
2018-05-27T17:06:57.633Z,26.56
2018-05-27T17:09:26.113Z,26.52
2018-05-27T17:11:54.804Z,26.50
2018-05-27T17:20:07.041Z,26.19
2018-05-27T17:22:35.474Z,26.08
2018-05-27T17:25:03.953Z,25.84
2018-05-27T17:27:32.425Z,25.58
2018-05-27T17:30:00.861Z,25.39
2018-05-27T17:32:29.292Z,25.25
2018-05-27T17:34:57.793Z,25.11
2018-05-27T17:37:26.225Z,24.90
2018-05-27T17:39:54.657Z,24.98
2018-05-27T17:42:23.132Z,25.03
2018-05-27T17:44:51.570Z,24.96
2018-05-27T17:47:20.000Z,25.04
2018-05-27T17:49:48.485Z,25.04
2018-05-27T17:52:16.916Z,24.95
2018-05-27T17:54:45.362Z,24.87
2018-05-27T17:57:13.837Z,24.75
2018-05-27T17:59:42.261Z,24.66
2018-05-27T18:02:10.676Z,24.51
2018-05-27T18:04:39.144Z,24.55
2018-05-27T18:07:07.621Z,24.51
2018-05-27T18:09:36.049Z,24.43
2018-05-27T18:12:04.572Z,24.44
2018-05-27T18:14:33.035Z,24.44
2018-05-27T18:17:01.802Z,24.37
2018-05-27T18:19:30.298Z,24.34
2018-05-27T18:21:58.724Z,24.38
2018-05-27T18:24:27.147Z,24.35
2018-05-27T18:26:55.615Z,24.35
2018-05-27T18:29:24.049Z,24.53
2018-05-27T18:31:52.831Z,24.47
2018-05-27T18:34:21.285Z,24.57
2018-05-27T18:36:49.736Z,24.48
2018-05-27T18:39:18.233Z,24.45
2018-05-27T18:41:46.705Z,24.21
2018-05-27T18:44:15.128Z,24.16
2018-05-27T18:46:43.551Z,24.17
2018-05-27T18:49:12.011Z,24.18
2018-05-27T18:51:40.428Z,24.19
2018-05-27T18:54:08.849Z,24.11
2018-05-27T18:56:37.310Z,23.91
2018-05-27T18:59:05.768Z,23.89
2018-05-27T19:01:34.192Z,23.73
2018-05-27T19:04:02.682Z,23.44
2018-05-27T19:06:31.108Z,23.50
2018-05-27T19:08:59.540Z,23.45
2018-05-27T19:11:28.006Z,23.51
2018-05-27T19:13:56.421Z,23.46
2018-05-27T19:16:24.841Z,23.40
2018-05-27T19:18:53.321Z,23.22
2018-05-27T19:21:21.795Z,23.08
2018-05-27T19:23:50.205Z,23.14
2018-05-27T19:26:18.656Z,23.15
2018-05-27T19:28:47.068Z,23.15
2018-05-27T19:31:15.476Z,23.07
2018-05-27T19:33:43.947Z,22.78
2018-05-27T19:36:12.364Z,22.77
2018-05-27T19:38:40.777Z,22.76
2018-05-27T19:41:09.252Z,22.54
2018-05-27T19:43:37.670Z,22.43
2018-05-27T19:46:06.097Z,22.40
2018-05-27T19:48:34.561Z,22.57
2018-05-27T19:51:02.992Z,22.41
2018-05-27T19:53:31.433Z,22.42
2018-05-27T19:55:59.926Z,22.64
2018-05-27T19:58:28.636Z,22.47
2018-05-27T20:00:57.102Z,22.54
2018-05-27T20:03:25.600Z,22.47
2018-05-27T20:05:54.025Z,22.34
2018-05-27T20:08:22.455Z,22.25
2018-05-27T20:10:50.928Z,22.27
2018-05-27T20:13:19.351Z,22.39
2018-05-27T20:15:47.780Z,22.44
2018-05-27T20:18:16.235Z,22.44
2018-05-27T20:20:44.648Z,22.36
2018-05-27T20:23:13.072Z,22.02
2018-05-27T20:25:41.544Z,21.96
2018-05-27T20:28:09.955Z,22.08
2018-05-27T20:30:38.360Z,21.73
2018-05-27T20:33:06.813Z,21.90
2018-05-27T20:35:35.229Z,22.01
2018-05-27T20:38:03.661Z,21.96
2018-05-27T20:40:32.113Z,22.09
2018-05-27T20:43:00.528Z,22.02
2018-05-27T20:45:28.936Z,22.10
2018-05-27T20:47:57.392Z,22.07
2018-05-27T20:50:25.843Z,22.08
2018-05-27T20:52:54.252Z,22.05
2018-05-27T20:55:22.725Z,22.06
2018-05-27T20:57:51.135Z,22.02
2018-05-27T21:00:19.541Z,22.01
2018-05-27T21:05:15.448Z,21.96
2018-05-27T21:07:43.870Z,21.93
2018-05-27T21:10:12.323Z,21.86
2018-05-27T21:12:40.733Z,21.59
2018-05-27T21:15:09.151Z,21.53
2018-05-27T21:17:37.605Z,21.61
2018-05-27T21:20:06.013Z,21.65
2018-05-27T21:22:34.466Z,21.65
2018-05-27T21:25:02.907Z,21.55
2018-05-27T21:27:31.332Z,21.43
2018-05-27T21:29:59.753Z,21.28
2018-05-27T21:32:28.205Z,21.21
2018-05-27T21:34:56.617Z,21.05
2018-05-27T21:37:25.031Z,20.75
2018-05-27T21:39:53.504Z,20.59
2018-05-27T21:42:21.917Z,20.63
2018-05-27T21:44:50.330Z,20.60
2018-05-27T21:47:18.791Z,20.70
2018-05-27T21:49:47.208Z,20.88
2018-05-27T21:52:15.612Z,21.07
2018-05-27T21:54:44.056Z,21.17
2018-05-27T21:57:12.462Z,20.93
2018-05-27T21:59:40.864Z,20.72
2018-05-27T22:02:09.324Z,20.52
2018-05-27T22:04:37.730Z,20.61
2018-05-27T22:07:06.158Z,20.81
2018-05-27T22:09:34.612Z,20.86
2018-05-27T22:12:03.024Z,20.92
2018-05-27T22:14:31.437Z,20.84
2018-05-27T22:16:59.891Z,20.91
2018-05-27T22:19:28.309Z,20.89
2018-05-27T22:21:56.718Z,20.82
2018-05-27T22:24:25.170Z,20.86
2018-05-27T22:26:53.586Z,20.72
2018-05-27T22:29:22.001Z,20.43
2018-05-27T22:31:50.459Z,20.28
2018-05-27T22:34:18.872Z,20.17
2018-05-27T22:36:47.296Z,20.08
2018-05-27T22:39:15.736Z,20.33
2018-05-27T22:41:44.148Z,20.37
2018-05-27T22:44:12.555Z,20.40
2018-05-27T22:46:41.107Z,20.29
2018-05-27T22:49:09.518Z,20.05
2018-05-27T22:51:37.944Z,19.94
2018-05-27T22:54:06.397Z,19.90
2018-05-27T22:56:34.800Z,19.87
2018-05-27T22:59:03.225Z,19.79
2018-05-27T23:01:31.711Z,19.76
2018-05-27T23:04:00.152Z,19.82
2018-05-27T23:06:28.560Z,19.81
2018-05-27T23:08:57.041Z,19.81
2018-05-27T23:11:25.453Z,19.71
2018-05-27T23:13:53.871Z,19.80
2018-05-27T23:16:22.342Z,19.76
2018-05-27T23:18:50.749Z,19.99
2018-05-27T23:21:19.171Z,20.07
2018-05-27T23:23:47.628Z,20.14
2018-05-27T23:26:16.045Z,20.12
2018-05-27T23:31:11.949Z,19.93
2018-05-27T23:33:40.416Z,19.78
2018-05-27T23:36:08.871Z,19.74
2018-05-27T23:38:37.313Z,19.62
2018-05-27T23:41:05.740Z,19.56
2018-05-27T23:43:34.165Z,19.48
2018-05-27T23:46:02.622Z,19.47
2018-05-27T23:48:31.028Z,19.51
2018-05-27T23:50:59.530Z,19.47
2018-05-27T23:53:27.979Z,19.40
2018-05-27T23:55:56.394Z,19.34
2018-05-27T23:58:24.885Z,19.46
